createdAt,value
2017-08-25T00:00:07.254Z,20.10
2017-08-25T00:02:35.213Z,20.10
2017-08-25T00:05:03.077Z,20.10
2017-08-25T00:07:31.712Z,20.10
2017-08-25T00:09:59.532Z,20.10
2017-08-25T00:12:27.458Z,20.10
2017-08-25T00:14:55.121Z,20.10
2017-08-25T00:17:23.953Z,20.10
2017-08-25T00:19:52.010Z,20.10
2017-08-25T00:22:20.083Z,20.10
2017-08-25T00:24:47.812Z,20.10
2017-08-25T00:27:16.124Z,20.00
2017-08-25T00:29:43.594Z,20.00
2017-08-25T00:32:11.033Z,19.90
2017-08-25T00:34:39.005Z,19.90
2017-08-25T00:37:06.455Z,19.90
2017-08-25T00:39:34.081Z,19.90
2017-08-25T00:42:01.529Z,19.80
2017-08-25T00:44:28.970Z,19.80
2017-08-25T00:46:56.442Z,19.70
2017-08-25T00:49:25.242Z,19.70
2017-08-25T00:51:53.134Z,19.60
2017-08-25T00:54:21.104Z,19.60
2017-08-25T00:56:49.077Z,19.60
2017-08-25T00:59:16.904Z,19.50
2017-08-25T01:01:44.806Z,19.50
2017-08-25T01:04:12.702Z,19.40
2017-08-25T01:06:40.760Z,19.40
2017-08-25T01:09:08.909Z,19.40
2017-08-25T01:11:36.817Z,19.40
2017-08-25T01:14:04.703Z,19.30
2017-08-25T01:16:32.208Z,19.30
2017-08-25T01:19:00.104Z,19.30
2017-08-25T01:21:27.999Z,19.30
2017-08-25T01:23:56.008Z,19.20
2017-08-25T01:26:23.455Z,19.20
2017-08-25T01:28:51.189Z,19.10
2017-08-25T01:31:19.249Z,19.10
2017-08-25T01:33:46.921Z,19.10
2017-08-25T01:36:14.382Z,19.10
2017-08-25T01:38:42.325Z,19.00
2017-08-25T01:41:09.765Z,19.00
2017-08-25T01:43:37.240Z,19.00
2017-08-25T01:46:04.701Z,18.90
2017-08-25T01:48:32.871Z,19.00
2017-08-25T01:51:00.345Z,19.00
2017-08-25T01:53:28.053Z,18.90
2017-08-25T01:55:55.826Z,18.90
2017-08-25T01:58:24.783Z,18.80
2017-08-25T02:00:53.961Z,18.80
2017-08-25T02:03:21.690Z,18.80
2017-08-25T02:05:49.560Z,18.80
2017-08-25T02:08:17.352Z,18.80
2017-08-25T02:10:45.820Z,18.70
2017-08-25T02:13:13.561Z,18.70
2017-08-25T02:15:41.018Z,18.60
2017-08-25T02:18:08.919Z,18.60
2017-08-25T02:20:36.860Z,18.50
2017-08-25T02:23:04.521Z,18.50
2017-08-25T02:25:31.969Z,18.50
2017-08-25T02:27:59.563Z,18.50
2017-08-25T02:30:26.997Z,18.50
2017-08-25T02:32:54.761Z,18.40
2017-08-25T02:35:22.542Z,18.40
2017-08-25T02:37:51.110Z,18.40
2017-08-25T02:40:18.773Z,18.40
2017-08-25T02:42:46.284Z,18.40
2017-08-25T02:45:14.129Z,18.30
2017-08-25T02:47:41.582Z,18.30
2017-08-25T02:50:09.062Z,18.30
2017-08-25T02:52:36.535Z,18.30
2017-08-25T02:55:04.604Z,18.20
2017-08-25T02:57:32.481Z,18.20
2017-08-25T02:59:59.943Z,18.20
2017-08-25T03:02:27.770Z,18.10
2017-08-25T03:04:55.625Z,18.10
2017-08-25T03:07:23.331Z,18.10
2017-08-25T03:09:51.109Z,18.00
2017-08-25T03:12:19.281Z,18.00
2017-08-25T03:14:46.942Z,18.00
2017-08-25T03:17:14.778Z,17.90
2017-08-25T03:19:42.834Z,17.90
2017-08-25T03:22:10.782Z,17.90
2017-08-25T03:24:38.266Z,17.90
2017-08-25T03:27:07.109Z,17.90
2017-08-25T03:29:34.653Z,17.90
2017-08-25T03:32:02.143Z,17.80
2017-08-25T03:34:29.931Z,17.80
2017-08-25T03:36:57.369Z,17.80
2017-08-25T03:39:24.851Z,17.80
2017-08-25T03:41:52.974Z,17.80
2017-08-25T03:44:20.454Z,17.70
2017-08-25T03:46:47.913Z,17.70
2017-08-25T03:49:15.372Z,17.70
2017-08-25T03:51:43.403Z,17.70
2017-08-25T03:54:11.892Z,17.60
2017-08-25T03:56:40.895Z,17.60
2017-08-25T03:59:09.551Z,17.60
2017-08-25T04:01:37.363Z,17.50
2017-08-25T04:04:04.840Z,17.50
2017-08-25T04:06:32.891Z,17.50
2017-08-25T04:09:00.952Z,17.50
2017-08-25T04:11:29.208Z,17.40
2017-08-25T04:13:56.679Z,17.40
2017-08-25T04:16:24.904Z,17.40
2017-08-25T04:18:52.957Z,17.40
2017-08-25T04:21:20.739Z,17.40
2017-08-25T04:23:48.574Z,17.30
2017-08-25T04:26:16.053Z,17.30
2017-08-25T04:28:44.069Z,17.30
2017-08-25T04:31:11.532Z,17.30
2017-08-25T04:33:39.117Z,17.30
2017-08-25T04:36:07.127Z,17.30
2017-08-25T04:38:34.555Z,17.30
2017-08-25T04:41:02.024Z,17.30
2017-08-25T04:43:29.499Z,17.30
2017-08-25T04:45:57.313Z,17.30
2017-08-25T04:48:25.321Z,17.30
2017-08-25T04:50:52.761Z,17.30
2017-08-25T04:53:20.256Z,17.30
2017-08-25T04:55:48.059Z,17.30
2017-08-25T04:58:16.009Z,17.30
2017-08-25T05:00:43.455Z,17.20
2017-08-25T05:03:11.243Z,17.20
2017-08-25T05:05:39.250Z,17.30
2017-08-25T05:08:07.744Z,17.20
2017-08-25T05:10:35.585Z,17.20
2017-08-25T05:13:03.357Z,17.20
2017-08-25T05:15:31.271Z,17.20
2017-08-25T05:17:59.533Z,17.20
2017-08-25T05:20:26.978Z,17.30
2017-08-25T05:22:54.793Z,17.30
2017-08-25T05:25:22.301Z,17.30
2017-08-25T05:27:49.746Z,17.30
2017-08-25T05:30:17.216Z,17.30
2017-08-25T05:32:44.730Z,17.30
2017-08-25T05:35:13.271Z,17.40
2017-08-25T05:37:40.710Z,17.40
2017-08-25T05:40:08.302Z,17.40
2017-08-25T05:42:37.276Z,17.40
2017-08-25T05:45:04.856Z,17.50
2017-08-25T05:47:32.318Z,17.50
2017-08-25T05:49:59.802Z,17.50
2017-08-25T05:52:27.517Z,17.50
2017-08-25T05:54:55.557Z,17.50
2017-08-25T05:57:23.325Z,17.60
2017-08-25T05:59:50.768Z,17.50
2017-08-25T06:02:19.011Z,17.60
2017-08-25T06:04:47.208Z,17.60
2017-08-25T06:07:15.229Z,17.60
2017-08-25T06:09:43.157Z,17.70
2017-08-25T06:12:10.928Z,17.70
2017-08-25T06:14:38.392Z,17.70
2017-08-25T06:17:05.893Z,17.80
2017-08-25T06:19:33.652Z,17.80
2017-08-25T06:22:01.513Z,17.80
2017-08-25T06:24:29.032Z,17.80
2017-08-25T06:26:56.492Z,17.80
2017-08-25T06:29:23.961Z,17.80
2017-08-25T06:31:51.774Z,17.80
2017-08-25T06:34:19.257Z,17.80
2017-08-25T06:36:46.727Z,17.90
2017-08-25T06:39:14.179Z,17.90
2017-08-25T06:41:41.640Z,18.00
2017-08-25T06:44:09.081Z,18.00
2017-08-25T06:46:36.558Z,18.00
2017-08-25T06:49:04.086Z,18.10
2017-08-25T06:51:31.551Z,18.10
2017-08-25T06:53:59.152Z,18.20
2017-08-25T06:56:27.334Z,18.30
2017-08-25T06:58:55.184Z,18.30
2017-08-25T07:01:23.035Z,18.30
2017-08-25T07:03:50.508Z,18.30
2017-08-25T07:06:18.383Z,18.40
2017-08-25T07:08:47.471Z,18.50
2017-08-25T07:11:14.939Z,18.50
2017-08-25T07:13:42.955Z,18.60
2017-08-25T07:16:10.431Z,18.60
2017-08-25T07:18:38.250Z,18.70
2017-08-25T07:21:05.793Z,18.70
2017-08-25T07:23:33.652Z,18.70
2017-08-25T07:26:01.601Z,18.70
2017-08-25T07:28:29.449Z,18.70
2017-08-25T07:30:57.103Z,18.80
2017-08-25T07:33:25.336Z,18.90
2017-08-25T07:35:53.501Z,18.90
2017-08-25T07:38:21.224Z,19.00
2017-08-25T07:40:48.662Z,19.10
2017-08-25T07:43:16.477Z,19.10
2017-08-25T07:45:44.159Z,19.20
2017-08-25T07:48:11.603Z,19.20
2017-08-25T07:50:39.069Z,19.30
2017-08-25T07:53:06.514Z,19.40
2017-08-25T07:55:34.474Z,19.40
2017-08-25T07:58:02.752Z,19.50
2017-08-25T08:00:30.254Z,19.60
2017-08-25T08:02:58.047Z,19.70
2017-08-25T08:05:25.501Z,19.80
2017-08-25T08:07:53.312Z,19.80
2017-08-25T08:10:21.276Z,19.80
2017-08-25T08:12:49.050Z,19.90
2017-08-25T08:15:16.544Z,19.90
2017-08-25T08:17:44.620Z,19.90
2017-08-25T08:20:12.124Z,20.00
2017-08-25T08:22:41.400Z,20.10
2017-08-25T08:25:08.889Z,20.10
2017-08-25T08:27:37.545Z,20.10
2017-08-25T08:30:05.068Z,20.10
2017-08-25T08:32:33.350Z,20.20
2017-08-25T08:35:00.877Z,20.30
2017-08-25T08:37:28.324Z,20.30
2017-08-25T08:39:56.303Z,20.40
2017-08-25T08:42:24.543Z,20.60
2017-08-25T08:44:52.052Z,20.60
2017-08-25T08:47:19.657Z,20.70
2017-08-25T08:49:48.020Z,20.80
2017-08-25T08:52:15.533Z,20.90
2017-08-25T08:54:42.977Z,20.90
2017-08-25T08:57:10.877Z,21.00
2017-08-25T08:59:38.591Z,21.10
2017-08-25T09:02:06.376Z,21.20
2017-08-25T09:04:33.811Z,21.20
2017-08-25T09:07:01.752Z,21.20
2017-08-25T09:09:29.675Z,21.30
2017-08-25T09:11:57.177Z,21.30
2017-08-25T09:14:25.093Z,21.40
2017-08-25T09:16:53.335Z,21.50
2017-08-25T09:19:21.324Z,21.50
2017-08-25T09:21:49.447Z,21.50
2017-08-25T09:24:17.325Z,21.50
2017-08-25T09:26:44.839Z,21.50
2017-08-25T09:29:12.284Z,21.50
2017-08-25T09:31:39.777Z,21.60
2017-08-25T09:34:07.236Z,21.60
2017-08-25T09:36:35.807Z,21.70
2017-08-25T09:39:03.276Z,21.70
2017-08-25T09:41:30.764Z,21.60
2017-08-25T09:43:58.230Z,21.70
2017-08-25T09:46:25.683Z,21.70
2017-08-25T09:48:53.487Z,21.80
2017-08-25T09:51:21.517Z,21.80
2017-08-25T09:53:48.981Z,21.90
2017-08-25T09:56:17.014Z,21.90
2017-08-25T09:58:44.897Z,22.00
2017-08-25T10:01:12.995Z,22.00
2017-08-25T10:03:40.495Z,22.10
2017-08-25T10:06:07.941Z,22.30
2017-08-25T10:08:35.622Z,22.40
2017-08-25T10:11:03.493Z,22.60
2017-08-25T10:13:31.655Z,22.70
2017-08-25T10:15:59.689Z,22.80
2017-08-25T10:18:28.234Z,22.90
2017-08-25T10:20:55.677Z,23.00
2017-08-25T10:23:23.468Z,23.10
2017-08-25T10:25:50.912Z,23.30
2017-08-25T10:28:18.405Z,23.40
2017-08-25T10:30:46.017Z,23.50
2017-08-25T10:33:25.540Z,23.60
2017-08-25T10:36:04.917Z,23.70
2017-08-25T10:38:44.290Z,23.70
2017-08-25T10:41:23.568Z,23.80
2017-08-25T10:44:02.925Z,23.90
2017-08-25T10:46:30.791Z,24.00
2017-08-25T10:48:58.321Z,24.20
2017-08-25T10:51:25.855Z,24.30
2017-08-25T10:53:53.334Z,24.50
2017-08-25T10:56:21.509Z,24.70
2017-08-25T10:58:49.569Z,24.80
2017-08-25T11:01:18.471Z,25.10
2017-08-25T11:03:45.950Z,25.10
2017-08-25T11:06:13.422Z,25.30
2017-08-25T11:08:41.442Z,25.40
2017-08-25T11:11:09.358Z,25.60
2017-08-25T11:13:37.335Z,25.60
2017-08-25T11:16:04.791Z,25.60
2017-08-25T11:18:32.760Z,25.70
2017-08-25T11:21:00.288Z,25.80
2017-08-25T11:23:28.386Z,25.80
2017-08-25T11:25:56.591Z,26.10
2017-08-25T11:28:24.063Z,26.10
2017-08-25T11:30:51.518Z,26.20
2017-08-25T11:33:21.716Z,26.60
2017-08-25T11:35:49.762Z,26.50
2017-08-25T11:38:17.352Z,26.70
2017-08-25T11:40:44.835Z,26.80
2017-08-25T11:43:13.718Z,26.90
2017-08-25T11:45:41.209Z,26.90
2017-08-25T11:48:08.666Z,27.00
2017-08-25T11:50:36.144Z,27.10
2017-08-25T11:53:03.572Z,27.20
2017-08-25T11:55:31.114Z,27.30
2017-08-25T11:57:59.221Z,27.50
2017-08-25T12:00:26.699Z,27.50
2017-08-25T12:02:54.499Z,27.60
2017-08-25T12:05:23.250Z,27.70
2017-08-25T12:07:51.304Z,27.70
2017-08-25T12:10:19.101Z,27.80
2017-08-25T12:12:46.913Z,27.90
2017-08-25T12:15:14.355Z,28.10
2017-08-25T12:17:42.226Z,28.10
2017-08-25T12:20:09.692Z,28.20
2017-08-25T12:22:37.557Z,28.20
2017-08-25T12:25:05.030Z,28.20
2017-08-25T12:27:32.513Z,28.20
2017-08-25T12:29:59.990Z,28.20
2017-08-25T12:32:27.457Z,28.20
2017-08-25T12:34:54.998Z,28.20
2017-08-25T12:37:22.440Z,28.20
2017-08-25T12:39:50.070Z,28.20
2017-08-25T12:42:17.925Z,28.20
2017-08-25T12:44:45.430Z,28.10
2017-08-25T12:47:13.306Z,28.00
2017-08-25T12:49:41.269Z,28.00
2017-08-25T12:52:08.720Z,28.00
2017-08-25T12:54:36.692Z,28.10
2017-08-25T12:57:04.633Z,28.00
2017-08-25T12:59:33.105Z,28.20
2017-08-25T13:02:01.314Z,28.20
2017-08-25T13:04:28.832Z,28.20
2017-08-25T13:06:56.653Z,28.20
2017-08-25T13:09:24.594Z,28.20
2017-08-25T13:11:52.067Z,28.30
2017-08-25T13:14:20.077Z,28.30
2017-08-25T13:16:47.547Z,28.30
2017-08-25T13:19:16.356Z,28.20
2017-08-25T13:21:44.421Z,28.20
2017-08-25T13:24:11.872Z,28.20
2017-08-25T13:26:39.334Z,28.20
2017-08-25T13:29:06.892Z,28.20
2017-08-25T13:31:34.340Z,28.30
2017-08-25T13:34:02.434Z,28.30
2017-08-25T13:36:30.528Z,28.40
2017-08-25T13:38:58.041Z,28.50
2017-08-25T13:41:25.923Z,28.60
2017-08-25T13:43:53.373Z,28.70
2017-08-25T13:46:21.213Z,28.80
2017-08-25T13:48:48.675Z,28.80
2017-08-25T13:51:16.249Z,28.80
2017-08-25T13:53:43.742Z,28.90
2017-08-25T13:56:11.175Z,28.90
2017-08-25T13:58:39.206Z,28.90
2017-08-25T14:01:07.199Z,28.80
2017-08-25T14:03:34.657Z,28.70
2017-08-25T14:06:02.125Z,28.60
2017-08-25T14:08:30.235Z,28.40
2017-08-25T14:10:58.181Z,28.30
2017-08-25T14:13:26.241Z,28.20
2017-08-25T14:15:54.050Z,28.10
2017-08-25T14:18:23.290Z,28.10
2017-08-25T14:20:50.748Z,28.00
2017-08-25T14:23:18.573Z,28.00
2017-08-25T14:25:46.045Z,28.00
2017-08-25T14:28:13.958Z,28.00
2017-08-25T14:30:41.720Z,28.00
2017-08-25T14:33:09.752Z,27.90
2017-08-25T14:35:37.786Z,27.80
2017-08-25T14:38:05.247Z,27.70
2017-08-25T14:40:33.002Z,27.60
2017-08-25T14:43:00.504Z,27.50
2017-08-25T14:45:28.498Z,27.40
2017-08-25T14:47:55.960Z,27.20
2017-08-25T14:50:24.407Z,27.10
2017-08-25T14:52:51.869Z,27.10
2017-08-25T14:55:19.385Z,27.20
2017-08-25T14:57:47.295Z,27.20
2017-08-25T15:00:14.773Z,27.20
2017-08-25T15:02:42.595Z,27.30
2017-08-25T15:05:10.028Z,27.40
2017-08-25T15:07:37.760Z,27.40
2017-08-25T15:10:05.733Z,27.40
2017-08-25T15:12:33.199Z,27.40
2017-08-25T15:15:01.071Z,27.40
2017-08-25T15:17:29.857Z,27.40
2017-08-25T15:19:57.444Z,27.30
2017-08-25T15:22:25.220Z,27.30
2017-08-25T15:24:52.696Z,27.30
2017-08-25T15:27:20.177Z,27.20
2017-08-25T15:29:47.647Z,27.20
2017-08-25T15:32:16.123Z,27.10
2017-08-25T15:34:44.133Z,27.10
2017-08-25T15:37:12.128Z,27.00
2017-08-25T15:39:39.641Z,26.90
2017-08-25T15:42:07.327Z,26.90
2017-08-25T15:44:34.886Z,26.80
2017-08-25T15:47:02.370Z,26.70
2017-08-25T15:49:30.075Z,26.70
2017-08-25T15:51:57.516Z,26.70
2017-08-25T15:54:25.001Z,26.60
2017-08-25T15:56:52.794Z,26.60
2017-08-25T15:59:20.291Z,26.60
2017-08-25T16:01:48.362Z,26.60
2017-08-25T16:04:16.425Z,26.50
2017-08-25T16:06:44.434Z,26.50
2017-08-25T16:09:12.430Z,26.40
2017-08-25T16:11:39.878Z,26.40
2017-08-25T16:14:07.953Z,26.30
2017-08-25T16:16:36.256Z,26.30
2017-08-25T16:19:05.235Z,26.30
2017-08-25T16:21:32.877Z,26.30
2017-08-25T16:24:00.834Z,26.30
2017-08-25T16:26:28.313Z,26.30
2017-08-25T16:28:56.231Z,26.20
2017-08-25T16:31:23.993Z,26.20
2017-08-25T16:33:52.130Z,26.20
2017-08-25T16:36:20.425Z,26.10
2017-08-25T16:38:48.036Z,26.10
2017-08-25T16:41:15.927Z,26.10
2017-08-25T16:43:43.869Z,26.00
2017-08-25T16:46:12.541Z,26.00
2017-08-25T16:48:40.220Z,25.90
2017-08-25T16:51:07.706Z,25.90
2017-08-25T16:53:35.686Z,25.80
2017-08-25T16:56:03.906Z,25.80
2017-08-25T16:58:31.903Z,25.80
2017-08-25T17:01:00.047Z,25.70
2017-08-25T17:03:27.607Z,25.70
2017-08-25T17:05:55.146Z,25.70
2017-08-25T17:08:22.994Z,25.70
2017-08-25T17:10:50.874Z,25.70
2017-08-25T17:13:18.328Z,25.70
2017-08-25T17:15:46.244Z,25.70
2017-08-25T17:18:14.184Z,25.60
2017-08-25T17:20:41.834Z,25.60
2017-08-25T17:23:10.362Z,25.60
2017-08-25T17:25:37.829Z,25.50
2017-08-25T17:28:05.270Z,25.50
2017-08-25T17:30:32.942Z,25.40
2017-08-25T17:33:01.149Z,25.40
2017-08-25T17:35:28.694Z,25.30
2017-08-25T17:37:56.208Z,25.30
2017-08-25T17:40:23.940Z,25.30
2017-08-25T17:42:52.454Z,25.10
2017-08-25T17:45:20.023Z,25.10
2017-08-25T17:47:48.417Z,25.10
2017-08-25T17:50:16.321Z,25.00
2017-08-25T17:52:43.798Z,25.00
2017-08-25T17:55:12.273Z,24.90
2017-08-25T17:57:40.368Z,24.90
2017-08-25T18:00:07.826Z,24.90
2017-08-25T18:02:35.736Z,24.90
2017-08-25T18:05:03.199Z,24.80
2017-08-25T18:07:31.900Z,24.80
2017-08-25T18:09:59.869Z,24.80
2017-08-25T18:12:28.199Z,24.70
2017-08-25T18:14:56.217Z,24.70
2017-08-25T18:17:25.117Z,24.60
2017-08-25T18:19:52.601Z,24.60
2017-08-25T18:22:20.538Z,24.60
2017-08-25T18:24:48.013Z,24.60
2017-08-25T18:27:15.492Z,24.50
2017-08-25T18:29:43.142Z,24.40
2017-08-25T18:32:10.689Z,24.40
2017-08-25T18:34:38.126Z,24.40
2017-08-25T18:37:05.583Z,24.30
2017-08-25T18:39:33.541Z,24.20
2017-08-25T18:42:02.027Z,24.10
2017-08-25T18:44:30.026Z,24.00
2017-08-25T18:46:58.924Z,23.90
2017-08-25T18:49:27.176Z,23.90
2017-08-25T18:51:54.650Z,23.80
2017-08-25T18:54:22.097Z,23.70
2017-08-25T18:56:50.392Z,23.70
2017-08-25T18:59:18.325Z,23.70
2017-08-25T19:01:46.158Z,23.60
2017-08-25T19:04:14.393Z,23.50
2017-08-25T19:06:42.560Z,23.50
2017-08-25T19:09:10.531Z,23.40
2017-08-25T19:11:38.490Z,23.40
2017-08-25T19:14:07.396Z,23.30
2017-08-25T19:16:34.854Z,23.30
2017-08-25T19:19:03.523Z,23.20
2017-08-25T19:21:31.059Z,23.20
2017-08-25T19:23:58.833Z,23.20
2017-08-25T19:26:26.299Z,23.20
2017-08-25T19:28:53.893Z,23.10
2017-08-25T19:31:21.886Z,23.10
2017-08-25T19:33:49.372Z,23.10
2017-08-25T19:36:17.995Z,23.00
2017-08-25T19:38:45.443Z,23.00
2017-08-25T19:41:13.193Z,22.90
2017-08-25T19:43:40.645Z,22.90
2017-08-25T19:46:09.301Z,22.80
2017-08-25T19:48:37.771Z,22.80
2017-08-25T19:51:05.285Z,22.80
2017-08-25T19:53:32.736Z,22.70
2017-08-25T19:56:00.208Z,22.70
2017-08-25T19:58:28.967Z,22.80
2017-08-25T20:00:57.021Z,22.80
2017-08-25T20:03:24.967Z,22.80
2017-08-25T20:05:52.422Z,22.80
2017-08-25T20:08:20.449Z,22.80
2017-08-25T20:10:48.342Z,22.80
2017-08-25T20:13:15.769Z,22.80
2017-08-25T20:15:43.713Z,22.80
2017-08-25T20:18:12.280Z,22.70
2017-08-25T20:20:39.753Z,22.70
2017-08-25T20:23:07.765Z,22.70
2017-08-25T20:25:35.670Z,22.60
2017-08-25T20:28:03.270Z,22.60
2017-08-25T20:30:31.022Z,22.50
2017-08-25T20:32:58.469Z,22.50
2017-08-25T20:35:26.011Z,22.50
2017-08-25T20:37:53.445Z,22.50
2017-08-25T20:40:21.438Z,22.60
2017-08-25T20:42:48.875Z,22.60
2017-08-25T20:45:16.343Z,22.70
2017-08-25T20:47:43.806Z,22.70
2017-08-25T20:50:11.765Z,22.70
2017-08-25T20:52:39.242Z,22.70
2017-08-25T20:55:06.703Z,22.70
2017-08-25T20:57:34.613Z,22.70
2017-08-25T21:00:02.616Z,22.70
2017-08-25T21:02:30.402Z,22.70
2017-08-25T21:04:57.848Z,22.60
2017-08-25T21:07:26.176Z,22.60
2017-08-25T21:09:54.367Z,22.50
2017-08-25T21:12:22.248Z,22.50
2017-08-25T21:14:50.464Z,22.50
2017-08-25T21:17:17.911Z,22.50
2017-08-25T21:19:45.898Z,22.60
2017-08-25T21:22:13.605Z,22.60
2017-08-25T21:24:41.611Z,22.60
2017-08-25T21:27:09.098Z,22.50
2017-08-25T21:29:38.201Z,22.50
2017-08-25T21:32:05.681Z,22.60
2017-08-25T21:34:33.144Z,22.60
2017-08-25T21:37:02.192Z,22.70
2017-08-25T21:39:29.639Z,22.70
2017-08-25T21:41:57.202Z,22.70
2017-08-25T21:44:24.646Z,22.70
2017-08-25T21:46:52.161Z,22.60
2017-08-25T21:49:20.165Z,22.50
2017-08-25T21:51:47.642Z,22.50
2017-08-25T21:54:15.563Z,22.50
2017-08-25T21:56:43.761Z,22.50
2017-08-25T21:59:11.389Z,22.50
2017-08-25T22:01:40.031Z,22.50
2017-08-25T22:04:07.544Z,22.40
2017-08-25T22:06:36.483Z,22.50
2017-08-25T22:09:05.420Z,22.50
2017-08-25T22:11:33.285Z,22.50
2017-08-25T22:14:00.757Z,22.50
2017-08-25T22:16:28.565Z,22.50
2017-08-25T22:18:56.327Z,22.50
2017-08-25T22:21:24.582Z,22.50
2017-08-25T22:23:52.353Z,22.50
2017-08-25T22:26:20.574Z,22.50
2017-08-25T22:28:48.437Z,22.50
2017-08-25T22:31:16.399Z,22.50
2017-08-25T22:33:43.842Z,22.50
2017-08-25T22:36:11.489Z,22.50
2017-08-25T22:38:39.232Z,22.50
2017-08-25T22:41:07.681Z,22.40
2017-08-25T22:43:35.128Z,22.40
2017-08-25T22:46:03.093Z,22.40
2017-08-25T22:48:31.004Z,22.40
2017-08-25T22:50:59.008Z,22.40
2017-08-25T22:53:26.485Z,22.50
2017-08-25T22:55:53.914Z,22.50
2017-08-25T22:58:21.687Z,22.50
2017-08-25T23:00:49.138Z,22.50
2017-08-25T23:03:17.826Z,22.50
2017-08-25T23:05:45.878Z,22.50
2017-08-25T23:08:14.849Z,22.40
2017-08-25T23:10:42.816Z,22.40
2017-08-25T23:13:10.581Z,22.30
2017-08-25T23:15:38.414Z,22.30
2017-08-25T23:18:06.259Z,22.20
2017-08-25T23:20:33.881Z,22.20
2017-08-25T23:23:01.878Z,22.10
2017-08-25T23:25:29.320Z,22.10
2017-08-25T23:27:57.315Z,22.00
2017-08-25T23:30:25.148Z,21.90
2017-08-25T23:32:52.604Z,21.80
2017-08-25T23:35:20.255Z,21.80
2017-08-25T23:37:49.669Z,21.70
2017-08-25T23:40:18.242Z,21.70
2017-08-25T23:42:45.985Z,21.60
2017-08-25T23:45:13.456Z,21.50
2017-08-25T23:47:40.905Z,21.50
2017-08-25T23:50:08.993Z,21.50
2017-08-25T23:52:36.439Z,21.50
2017-08-25T23:55:04.132Z,21.50
2017-08-25T23:57:32.168Z,21.50
2017-08-25T23:59:59.618Z,21.50
